Harry B. Settoon — WDE5658 — position and weather

sailwx.info

Track history (hours):
 
Tides and Currents Weather Stations Pressure Air Temp Water Temp Dewpoint Dewpoint Depression Visibility Wind Speed Wind Dir Waves Ship Positions

Harry B. Settoon

Owner: Settoon Towing, LLC, Houma, LA. More information available from US FCC via Universal Licensing System and Coast Guard Vessel Documentation Center.

Last reported at 2016-Feb-09 20:33 UTC. Time now 2016-Feb-09 20:41 UTC.
Position N 29°37' W 090°42'.

; draft 1.8 m.

Type: Tug. MMSI: 367369920.

Date/timePositionNaut miles runAvg speedWind from/ knotsBaromVisibWave heightAir tempDewpointWater temp
2016-Feb-09 20:33N 29°37' W 090°42'0 0.0
2016-Feb-09 19:33N 29°37' W 090°42'0 0.0
2016-Feb-09 18:33N 29°37' W 090°42'0 0.0
2016-Feb-09 17:33N 29°37' W 090°42'0 0.0
2016-Feb-09 16:33N 29°37' W 090°42'0 0.0
2016-Feb-09 15:33N 29°37' W 090°42'0 0.0
2016-Feb-09 14:33N 29°37' W 090°42'0 0.0
2016-Feb-09 13:33N 29°37' W 090°42'0 0.0
2016-Feb-09 12:33N 29°37' W 090°42'0 0.0
2016-Feb-09 11:33N 29°37' W 090°42'0 0.0
2016-Feb-09 10:33N 29°37' W 090°42'0 0.0
2016-Feb-09 09:33N 29°37' W 090°42'0 0.0
2016-Feb-09 08:33N 29°37' W 090°42'0 0.0
2016-Feb-09 07:33N 29°37' W 090°42'0 0.0
2016-Feb-09 06:33N 29°37' W 090°42'0 0.0
2016-Feb-09 05:33N 29°37' W 090°42'2 2.0
2016-Feb-09 04:33N 29°36' W 090°39'0 0.4
2016-Feb-09 03:32N 29°36' W 090°40'3 3.4
2016-Feb-09 02:33N 29°34' W 090°43'8 0.2
2016-Feb-07 19:17N 29°32' W 090°51'4 6.1
2016-Feb-07 18:33N 29°32' W 090°46'5 4.9
2016-Feb-07 17:33N 29°36' W 090°43'1 1.3
2016-Feb-07 16:33N 29°37' W 090°42'0 0.0
2016-Feb-07 15:33N 29°37' W 090°42'0 0.0
2016-Feb-07 14:33N 29°37' W 090°42'0 0.0
2016-Feb-07 13:33N 29°37' W 090°42'0 0.0
2016-Feb-07 12:33N 29°37' W 090°42'2 2.1
2016-Feb-07 11:33N 29°36' W 090°40'0 0.0
2016-Feb-07 10:33N 29°36' W 090°40'0 0.0
2016-Feb-07 09:33N 29°36' W 090°40'0 0.0
2016-Feb-07 08:33N 29°36' W 090°40'0 0.0
2016-Feb-07 07:33N 29°36' W 090°40'0 0.0
2016-Feb-07 06:33N 29°36' W 090°40'0 0.0
2016-Feb-07 05:33N 29°36' W 090°40'0 0.0
2016-Feb-07 04:33N 29°36' W 090°40'0 0.0
2016-Feb-07 03:33N 29°36' W 090°40'0 0.0
2016-Feb-07 02:33N 29°36' W 090°40'0 0.0
2016-Feb-07 01:33N 29°36' W 090°40'0 0.1
2016-Feb-07 00:33N 29°36' W 090°40'4 3.6
2016-Feb-06 23:33N 29°34' W 090°43'6 6.1
2016-Feb-06 22:33N 29°32' W 090°50'  
Track history (hours):
 
Tides and Currents Weather Stations Pressure Air Temp Water Temp Dewpoint Dewpoint Depression Visibility Wind Speed Wind Dir Waves Ship Positions

Harry B. Settoon

Owner: Settoon Towing, LLC, Houma, LA. More information available from US FCC via Universal Licensing System and Coast Guard Vessel Documentation Center.

Last reported at 2016-Feb-09 20:33 UTC. Time now 2016-Feb-09 20:41 UTC.
Position N 29°37' W 090°42'.

; draft 1.8 m.

Type: Tug. MMSI: 367369920.

Date/timePositionNaut miles runAvg speedWind from/ knotsBaromVisibWave heightAir tempDewpointWater temp
2016-Feb-09 20:33N 29°37' W 090°42'0 0.0
2016-Feb-09 19:33N 29°37' W 090°42'0 0.0
2016-Feb-09 18:33N 29°37' W 090°42'0 0.0
2016-Feb-09 17:33N 29°37' W 090°42'0 0.0
2016-Feb-09 16:33N 29°37' W 090°42'0 0.0
2016-Feb-09 15:33N 29°37' W 090°42'0 0.0
2016-Feb-09 14:33N 29°37' W 090°42'0 0.0
2016-Feb-09 13:33N 29°37' W 090°42'0 0.0
2016-Feb-09 12:33N 29°37' W 090°42'0 0.0
2016-Feb-09 11:33N 29°37' W 090°42'0 0.0
2016-Feb-09 10:33N 29°37' W 090°42'0 0.0
2016-Feb-09 09:33N 29°37' W 090°42'0 0.0
2016-Feb-09 08:33N 29°37' W 090°42'0 0.0
2016-Feb-09 07:33N 29°37' W 090°42'0 0.0
2016-Feb-09 06:33N 29°37' W 090°42'0 0.0
2016-Feb-09 05:33N 29°37' W 090°42'2 2.0
2016-Feb-09 04:33N 29°36' W 090°39'0 0.4
2016-Feb-09 03:32N 29°36' W 090°40'3 3.4
2016-Feb-09 02:33N 29°34' W 090°43'8 0.2
2016-Feb-07 19:17N 29°32' W 090°51'4 6.1
2016-Feb-07 18:33N 29°32' W 090°46'5 4.9
2016-Feb-07 17:33N 29°36' W 090°43'1 1.3
2016-Feb-07 16:33N 29°37' W 090°42'0 0.0
2016-Feb-07 15:33N 29°37' W 090°42'0 0.0
2016-Feb-07 14:33N 29°37' W 090°42'0 0.0
2016-Feb-07 13:33N 29°37' W 090°42'0 0.0
2016-Feb-07 12:33N 29°37' W 090°42'2 2.1
2016-Feb-07 11:33N 29°36' W 090°40'0 0.0
2016-Feb-07 10:33N 29°36' W 090°40'0 0.0
2016-Feb-07 09:33N 29°36' W 090°40'0 0.0
2016-Feb-07 08:33N 29°36' W 090°40'0 0.0
2016-Feb-07 07:33N 29°36' W 090°40'0 0.0
2016-Feb-07 06:33N 29°36' W 090°40'0 0.0
2016-Feb-07 05:33N 29°36' W 090°40'0 0.0
2016-Feb-07 04:33N 29°36' W 090°40'0 0.0
2016-Feb-07 03:33N 29°36' W 090°40'0 0.0
2016-Feb-07 02:33N 29°36' W 090°40'0 0.0
2016-Feb-07 01:33N 29°36' W 090°40'0 0.1
2016-Feb-07 00:33N 29°36' W 090°40'4 3.6
2016-Feb-06 23:33N 29°34' W 090°43'6 6.1
2016-Feb-06 22:33N 29°32' W 090°50'  

Dump ship's entire track history